Time;durP1;ratioP1;P1;durP2;ratioP2;P2;SDS_P1;SDS_P2;PMS_P1;PMS_P2;Temp;Humidity;BMP_temperature;BMP_pressure;BME280_temperature;BME280_humidity;BME280_pressure;Samples;Min_cycle;Max_cycle;Signal;HPM_P1;HPM_P2
2023/08/11 00:00:04;;;;;;;2.45;2.20;;;;;;;-145.69;60.62;51836.44;5112790;28;20229;-82
2023/08/11 00:02:31;;;;;;;4.05;2.78;;;;;;;-145.69;61.39;51848.34;5094716;28;20205;-81
2023/08/11 00:04:57;;;;;;;4.78;2.75;;;;;;;-145.69;61.55;51818.63;5113043;28;20220;-81
2023/08/11 00:07:25;;;;;;;5.35;2.30;;;;;;;-145.69;61.08;51814.66;5112527;28;20284;-80
2023/08/11 00:09:52;;;;;;;4.72;2.97;;;;;;;-145.69;61.29;51818.63;5112332;28;20205;-83
2023/08/11 00:12:18;;;;;;;3.38;2.47;;;;;;;-145.69;61.03;51818.63;5112753;28;20202;-82
2023/08/11 00:14:45;;;;;;;3.65;2.67;;;;;;;-145.69;61.19;51818.63;5112619;28;20222;-83
2023/08/11 00:17:11;;;;;;;3.83;2.60;;;;;;;-145.69;61.56;51846.34;5094803;28;20232;-83
2023/08/11 00:19:38;;;;;;;4.22;2.65;;;;;;;-145.69;60.79;51852.28;5112866;28;20556;-83
2023/08/11 00:22:06;;;;;;;3.97;2.60;;;;;;;-145.69;61.17;51826.56;5115334;28;20206;-82
2023/08/11 00:24:34;;;;;;;3.88;2.45;;;;;;;-145.69;61.59;51854.28;5116437;28;20201;-82
2023/08/11 00:27:02;;;;;;;4.78;2.83;;;;;;;-145.69;62.07;51832.50;5116217;28;20209;-82
2023/08/11 00:29:31;;;;;;;3.80;2.63;;;;;;;-145.69;62.57;51840.41;5116470;28;20198;-81
2023/08/11 00:31:57;;;;;;;4.05;2.65;;;;;;;-145.69;62.15;51856.25;5098012;28;20707;-82
2023/08/11 00:34:24;;;;;;;4.10;2.63;;;;;;;-145.69;62.48;51836.44;5116234;28;20279;-81
2023/08/11 00:36:50;;;;;;;6.57;2.67;;;;;;;-145.69;63.66;51828.53;5115820;28;20209;-82
2023/08/11 00:39:17;;;;;;;5.80;2.78;;;;;;;-145.69;62.89;51850.31;5115853;28;20224;-83
2023/08/11 00:41:45;;;;;;;7.72;2.92;;;;;;;-145.69;62.85;51838.44;5116117;28;20201;-83
2023/08/11 00:44:12;;;;;;;4.20;2.80;;;;;;;-145.69;63.12;51868.13;5116020;28;20838;-81
2023/08/11 00:46:39;;;;;;;4.32;2.45;;;;;;;-145.69;63.34;51834.47;5097795;28;20229;-82
2023/08/11 00:49:06;;;;;;;4.10;2.90;;;;;;;-145.69;63.46;51842.38;5097869;28;20194;-82
2023/08/11 00:51:33;;;;;;;6.28;3.00;;;;;;;-145.69;64.00;51842.38;5115111;28;20206;-82
2023/08/11 00:54:01;;;;;;;4.35;3.03;;;;;;;-145.69;64.34;51812.69;5115685;28;20215;-83
2023/08/11 00:56:28;;;;;;;4.10;2.90;;;;;;;-145.69;64.41;51830.50;5102325;28;20205;-82
2023/08/11 00:58:56;;;;;;;5.68;3.17;;;;;;;-145.69;63.76;51812.69;5095296;28;20221;-83
2023/08/11 01:01:22;;;;;;;6.78;3.00;;;;;;;-145.69;62.96;51846.34;5101578;28;20212;-82
2023/08/11 01:03:50;;;;;;;5.00;3.10;;;;;;;-145.69;62.67;51846.34;5105158;28;20199;-81
2023/08/11 01:06:24;;;;;;;5.38;3.00;;;;;;;-145.69;62.50;51862.19;5095105;28;20253;-82
2023/08/11 01:09:00;;;;;;;4.93;2.60;;;;;;;-145.69;62.11;51830.50;5097512;28;20206;-81
2023/08/11 01:11:33;;;;;;;4.53;2.70;;;;;;;-145.69;62.69;51816.66;5115565;28;20194;-83
2023/08/11 01:14:16;;;;;;;3.05;2.63;;;;;;;-145.69;62.87;51850.31;5115167;28;20274;-83
2023/08/11 01:16:44;;;;;;;3.30;2.40;;;;;;;-145.69;63.50;51854.28;5115259;28;20220;-83
2023/08/11 01:19:19;;;;;;;3.78;2.67;;;;;;;-145.69;63.94;51866.16;5115402;28;20229;-82
2023/08/11 01:21:48;;;;;;;3.67;2.78;;;;;;;-145.69;64.63;51870.13;5115160;28;20204;-82
2023/08/11 01:24:17;;;;;;;3.28;2.30;;;;;;;-145.69;64.69;51852.28;5115342;28;20666;-82
2023/08/11 01:26:44;;;;;;;4.00;2.67;;;;;;;-145.69;65.21;51876.06;5115039;28;20227;-82
2023/08/11 01:29:11;;;;;;;4.28;2.70;;;;;;;-145.69;65.23;51866.16;5115066;28;20201;-82
2023/08/11 01:31:37;;;;;;;4.63;2.72;;;;;;;-145.69;66.46;51852.28;5115279;28;20197;-83
2023/08/11 01:34:04;;;;;;;5.55;3.08;;;;;;;-145.69;67.53;51862.19;5096701;28;20673;-82
2023/08/11 01:36:30;;;;;;;4.28;2.95;;;;;;;-145.69;66.64;51854.28;5115078;28;20204;-84
2023/08/11 01:38:58;;;;;;;7.55;3.45;;;;;;;-145.69;66.33;51846.34;5114592;28;20580;-81
2023/08/11 01:41:26;;;;;;;7.10;3.17;;;;;;;-145.69;66.08;51854.28;5113011;27;20201;-83
2023/08/11 01:43:53;;;;;;;5.82;3.30;;;;;;;-145.69;67.26;51866.16;5133114;27;20197;-82
2023/08/11 01:46:21;;;;;;;4.53;3.05;;;;;;;-145.69;67.52;51866.16;5112989;28;20198;-81
2023/08/11 01:48:49;;;;;;;7.03;3.30;;;;;;;-145.69;66.55;51850.31;5114698;28;20259;-83
2023/08/11 01:51:15;;;;;;;5.95;3.13;;;;;;;-145.69;67.28;51852.28;5114953;28;20205;-82
2023/08/11 01:53:42;;;;;;;5.18;3.03;;;;;;;-145.69;67.12;51822.59;5114501;28;20185;-83
2023/08/11 01:56:10;;;;;;;5.50;2.95;;;;;;;-145.69;66.85;51862.19;5114593;28;20291;-82
2023/08/11 01:58:38;;;;;;;4.28;2.80;;;;;;;-145.69;66.56;51828.53;5114410;28;20722;-81
2023/08/11 02:01:04;;;;;;;5.47;2.88;;;;;;;-145.69;67.30;51862.19;5114432;28;20194;-82
2023/08/11 02:03:31;;;;;;;5.22;3.00;;;;;;;-145.69;66.97;51850.31;5114486;28;20197;-81
2023/08/11 02:05:58;;;;;;;4.85;3.20;;;;;;;-145.69;66.90;51846.34;5114262;28;20204;-82
2023/08/11 02:08:25;;;;;;;5.20;2.58;;;;;;;-145.69;66.73;51876.06;5114388;28;20254;-82
2023/08/11 02:10:52;;;;;;;4.30;2.90;;;;;;;-145.69;66.91;51870.13;5114093;28;20255;-82
2023/08/11 02:13:19;;;;;;;4.82;3.00;;;;;;;-145.69;66.85;51874.06;5114243;28;20225;-81
2023/08/11 02:15:47;;;;;;;3.42;2.60;;;;;;;-145.69;65.91;51866.16;5113976;28;20189;-81
2023/08/11 02:18:13;;;;;;;4.30;3.10;;;;;;;-145.69;66.68;51844.38;5114106;28;20592;-81
2023/08/11 02:20:41;;;;;;;4.03;3.00;;;;;;;-145.69;67.28;51830.50;5113914;28;20201;-82
2023/08/11 02:23:08;;;;;;;4.25;3.05;;;;;;;-145.69;68.05;51870.13;5114085;28;20337;-82
2023/08/11 02:25:35;;;;;;;6.47;3.53;;;;;;;-145.69;68.40;51866.16;5114309;28;20201;-82
2023/08/11 02:28:01;;;;;;;5.68;3.22;;;;;;;-145.69;68.79;51856.25;5113933;28;20739;-83
2023/08/11 02:30:29;;;;;;;5.32;3.50;;;;;;;-145.69;68.99;51883.97;5113931;28;20212;-83
2023/08/11 02:32:57;;;;;;;7.40;3.47;;;;;;;-145.69;68.81;51885.94;5113972;28;20273;-82
2023/08/11 02:35:24;;;;;;;4.95;3.30;;;;;;;-145.69;69.65;51864.16;5095530;28;20289;-81
2023/08/11 02:37:50;;;;;;;6.50;3.53;;;;;;;-145.69;68.72;51872.09;5113636;28;20225;-82
2023/08/11 02:40:19;;;;;;;5.07;3.13;;;;;;;-145.69;69.13;51887.94;5095535;28;20659;-83
2023/08/11 02:42:56;;;;;;;5.15;2.83;;;;;;;-145.69;69.09;51870.13;5113634;28;20655;-82
2023/08/11 02:45:23;;;;;;;5.63;3.60;;;;;;;-145.69;69.02;51838.44;5109404;28;20205;-81
2023/08/11 02:47:50;;;;;;;6.63;3.20;;;;;;;-145.69;69.28;51844.38;5113642;28;20202;-82
2023/08/11 02:50:18;;;;;;;4.97;3.05;;;;;;;-145.69;68.22;51872.09;5113522;28;20669;-82
2023/08/11 02:52:45;;;;;;;6.03;3.17;;;;;;;-145.69;68.59;51864.16;5113656;28;20251;-81
2023/08/11 02:55:12;;;;;;;4.70;3.13;;;;;;;-145.69;68.33;51864.16;5113164;28;20552;-82
2023/08/11 02:57:38;;;;;;;5.80;2.55;;;;;;;-145.69;68.80;51874.06;5113486;28;20196;-81
2023/08/11 03:00:12;;;;;;;7.20;3.25;;;;;;;-145.69;69.44;51856.25;5113179;28;20201;-81
2023/08/11 03:02:39;;;;;;;4.82;3.10;;;;;;;-145.69;69.39;51862.19;5113338;28;20235;-82
2023/08/11 03:05:07;;;;;;;6.15;3.40;;;;;;;-145.69;71.27;51870.13;5113606;28;20201;-83
2023/08/11 03:07:35;;;;;;;8.80;4.07;;;;;;;-145.69;70.72;51820.59;5113355;28;20747;-82
2023/08/11 03:10:02;;;;;;;7.95;3.70;;;;;;;-145.69;70.80;51862.19;5113285;28;20201;-83
2023/08/11 03:12:28;;;;;;;5.40;3.67;;;;;;;-145.69;70.90;51889.91;5095080;28;20201;-83
2023/08/11 03:14:55;;;;;;;3.92;3.13;;;;;;;-145.69;70.14;51887.94;5072794;28;20198;-82
2023/08/11 03:17:22;;;;;;;5.25;3.65;;;;;;;-145.69;70.42;51874.06;5072763;28;20203;-82
2023/08/11 03:19:48;;;;;;;9.20;3.45;;;;;;;-145.69;70.36;51836.44;5072642;28;20223;-82
2023/08/11 03:22:17;;;;;;;5.18;3.38;;;;;;;-145.69;70.46;51858.22;5072845;28;20199;-81
2023/08/11 03:24:45;;;;;;;5.13;3.47;;;;;;;-145.69;69.93;51858.22;5072733;28;20194;-81
2023/08/11 03:27:12;;;;;;;5.28;3.20;;;;;;;-145.69;69.66;51852.28;5072392;28;20199;-81
2023/08/11 03:29:38;;;;;;;4.90;3.03;;;;;;;-145.69;69.64;51858.22;5072624;28;20226;-81
2023/08/11 03:32:05;;;;;;;12.60;3.60;;;;;;;-145.69;69.71;51858.22;5072329;28;20600;-82
2023/08/11 03:34:32;;;;;;;4.38;3.15;;;;;;;-145.69;70.08;51870.13;5072552;28;20206;-80
2023/08/11 03:36:58;;;;;;;3.95;2.90;;;;;;;-145.69;69.76;51844.38;5079991;28;20216;-83
2023/08/11 03:39:25;;;;;;;5.63;3.58;;;;;;;-145.69;70.21;51885.94;5092601;28;20226;-82
2023/08/11 03:41:53;;;;;;;7.97;3.50;;;;;;;-145.69;70.95;51864.16;5092815;28;20321;-80
2023/08/11 03:44:20;;;;;;;4.40;3.10;;;;;;;-145.69;71.30;51856.25;5092523;28;20229;-82
2023/08/11 03:46:46;;;;;;;4.38;3.20;;;;;;;-145.69;70.57;51866.16;5082304;28;20210;-83
2023/08/11 03:49:14;;;;;;;7.35;3.47;;;;;;;-145.69;70.28;51870.13;5061824;28;20586;-81
2023/08/11 03:51:40;;;;;;;5.07;3.50;;;;;;;-145.69;69.62;51870.13;5052426;28;20208;-82
2023/08/11 03:54:07;;;;;;;6.43;2.85;;;;;;;-145.69;69.28;51874.06;5052377;28;20265;-84
2023/08/11 03:56:33;;;;;;;3.70;3.00;;;;;;;-145.69;69.04;51889.91;5054316;28;20203;-81
2023/08/11 03:59:01;;;;;;;5.47;3.42;;;;;;;-145.69;69.41;51876.06;5056068;28;20223;-81
2023/08/11 04:01:28;;;;;;;5.05;2.72;;;;;;;-145.69;68.76;51846.34;5056267;28;20200;-81
2023/08/11 04:03:55;;;;;;;4.50;3.03;;;;;;;-145.69;68.74;51874.06;5055978;28;20202;-83
2023/08/11 04:06:21;;;;;;;4.53;3.13;;;;;;;-145.69;68.54;51862.19;5056090;28;20199;-82
2023/08/11 04:08:48;;;;;;;3.47;2.78;;;;;;;-145.69;68.21;51862.19;5056053;28;20222;-83
2023/08/11 04:11:14;;;;;;;6.25;3.47;;;;;;;-145.69;68.64;51856.25;5056039;28;20282;-82
2023/08/11 04:13:41;;;;;;;5.03;3.42;;;;;;;-145.69;68.48;51903.78;5075867;28;20234;-83
2023/08/11 04:16:09;;;;;;;4.90;3.25;;;;;;;-145.69;68.87;51882.00;5112881;28;20220;-84
2023/08/11 04:18:35;;;;;;;3.90;3.08;;;;;;;-145.69;69.37;51882.00;5116933;28;20229;-82
2023/08/11 04:21:02;;;;;;;4.78;3.15;;;;;;;-145.69;68.55;51858.22;5116285;28;20205;-83
2023/08/11 04:23:29;;;;;;;4.43;3.30;;;;;;;-145.69;68.61;51883.97;5116426;28;20197;-83
2023/08/11 04:25:55;;;;;;;4.82;2.97;;;;;;;-145.69;68.77;51856.25;5116460;28;20282;-82
2023/08/11 04:28:22;;;;;;;5.75;3.13;;;;;;;-145.69;68.42;51883.97;5116381;28;20198;-82
2023/08/11 04:30:49;;;;;;;5.55;3.55;;;;;;;-145.69;68.31;51874.06;5116073;28;20246;-83
2023/08/11 04:33:17;;;;;;;5.00;3.50;;;;;;;-145.69;67.55;51850.31;5116171;28;20686;-82
2023/08/11 04:35:44;;;;;;;6.28;3.72;;;;;;;-145.69;67.90;51883.97;5116107;28;20206;-82
2023/08/11 04:38:10;;;;;;;4.75;3.10;;;;;;;-145.69;68.26;51874.06;5115990;28;20216;-82
2023/08/11 04:40:37;;;;;;;5.00;3.05;;;;;;;-145.69;68.45;51874.06;5115826;28;20204;-84
2023/08/11 04:43:04;;;;;;;4.53;3.30;;;;;;;-145.69;68.07;51836.44;5102737;28;20281;-81
2023/08/11 04:45:30;;;;;;;4.30;2.83;;;;;;;-145.69;67.83;51850.31;5105871;28;20190;-84
2023/08/11 04:47:57;;;;;;;7.25;3.35;;;;;;;-145.69;67.87;51854.28;5114677;28;20196;-82
2023/08/11 04:50:25;;;;;;;5.22;3.22;;;;;;;-145.69;67.90;51887.94;5115809;28;20254;-83
2023/08/11 04:52:52;;;;;;;4.43;2.88;;;;;;;-145.69;68.00;51846.34;5115527;28;20206;-83
2023/08/11 04:55:19;;;;;;;6.13;2.85;;;;;;;-145.69;67.75;51876.06;5115739;28;20731;-83
2023/08/11 04:57:45;;;;;;;5.32;3.33;;;;;;;-145.69;67.61;51858.22;5115509;28;20204;-83
2023/08/11 05:00:16;;;;;;;6.22;3.35;;;;;;;-145.69;67.55;51834.47;5115929;28;20224;-83
2023/08/11 05:02:42;;;;;;;5.57;3.15;;;;;;;-145.69;67.29;51868.13;5116131;28;20189;-84
2023/08/11 05:05:09;;;;;;;4.18;2.88;;;;;;;-145.69;67.14;51830.50;5116271;28;20198;-85
2023/08/11 05:07:37;;;;;;;5.28;3.30;;;;;;;-145.69;67.02;51860.22;5115097;28;20663;-84
2023/08/11 05:10:05;;;;;;;4.95;3.17;;;;;;;-145.69;67.16;51848.34;5115640;28;20198;-84
2023/08/11 05:12:31;;;;;;;4.47;3.13;;;;;;;-145.69;67.25;51897.84;5097702;28;20197;-83
2023/08/11 05:14:58;;;;;;;7.57;2.97;;;;;;;-145.69;67.28;51874.06;5115315;28;20193;-83
2023/08/11 05:17:24;;;;;;;4.43;2.97;;;;;;;-145.69;67.15;51893.88;5114926;28;20204;-83
2023/08/11 05:19:51;;;;;;;4.28;2.97;;;;;;;-145.69;67.08;51842.38;5115465;28;20229;-83
2023/08/11 05:22:17;;;;;;;4.93;2.90;;;;;;;-145.69;67.26;51850.31;5115208;28;20197;-83
2023/08/11 05:24:45;;;;;;;5.80;3.20;;;;;;;-145.69;67.01;51860.22;5115303;28;20614;-82
2023/08/11 05:27:14;;;;;;;5.15;3.10;;;;;;;-145.69;66.85;51872.09;5114769;28;20201;-83
2023/08/11 05:29:45;;;;;;;8.23;3.58;;;;;;;-145.69;66.76;51876.06;5115193;28;20199;-83
2023/08/11 05:32:11;;;;;;;5.97;2.72;;;;;;;-145.69;66.63;51850.31;5114913;28;20794;-83
2023/08/11 05:34:38;;;;;;;6.30;3.30;;;;;;;-145.69;66.73;51889.91;5114896;28;20197;-83
2023/08/11 05:37:05;;;;;;;4.50;3.22;;;;;;;-145.69;66.41;51850.31;5115234;28;20204;-83
2023/08/11 05:39:32;;;;;;;4.40;3.10;;;;;;;-145.69;66.55;51852.28;5096450;28;20711;-82
2023/08/11 05:42:00;;;;;;;4.10;2.90;;;;;;;-145.69;66.50;51862.19;5115026;28;20246;-83
2023/08/11 05:44:26;;;;;;;4.22;3.10;;;;;;;-145.69;66.54;51848.34;5121918;27;20420;-83
2023/08/11 05:46:53;;;;;;;5.10;3.45;;;;;;;-145.69;66.54;51850.31;5124033;27;20659;-83
2023/08/11 05:49:19;;;;;;;3.70;2.63;;;;;;;-145.69;66.40;51885.94;5113079;28;20197;-83
2023/08/11 05:51:46;;;;;;;4.90;2.70;;;;;;;-145.69;66.03;51856.25;5114757;28;20209;-83
2023/08/11 05:54:12;;;;;;;7.35;2.88;;;;;;;-145.69;66.44;51826.56;5114413;28;20201;-84
2023/08/11 05:56:39;;;;;;;4.95;2.75;;;;;;;-145.69;66.02;51842.38;5114404;28;20193;-83
2023/08/11 05:59:07;;;;;;;8.88;3.10;;;;;;;-145.69;65.62;51836.44;5096229;28;20225;-82
2023/08/11 06:01:34;;;;;;;4.70;2.85;;;;;;;-145.69;65.98;51834.47;5114952;28;20197;-83
2023/08/11 06:04:00;;;;;;;7.45;2.80;;;;;;;-145.69;65.90;51836.44;5096498;28;20594;-82
2023/08/11 06:06:27;;;;;;;4.15;2.88;;;;;;;-145.69;66.28;51822.59;5114694;28;20212;-82
2023/08/11 06:08:54;;;;;;;7.47;3.20;;;;;;;-145.69;66.06;51858.22;5114590;28;20209;-83
2023/08/11 06:11:20;;;;;;;4.82;3.00;;;;;;;-145.69;66.85;51850.31;5114142;28;20198;-82
2023/08/11 06:13:47;;;;;;;5.05;3.03;;;;;;;-145.69;66.32;51826.56;5114125;28;20591;-82
2023/08/11 06:16:15;;;;;;;5.70;2.70;;;;;;;-145.69;65.84;51828.53;5114112;28;20200;-83
2023/08/11 06:18:41;;;;;;;3.55;2.80;;;;;;;-145.69;65.96;51854.28;5113324;28;20208;-83
2023/08/11 06:21:09;;;;;;;5.50;2.90;;;;;;;-145.69;65.96;51844.38;5113870;28;20202;-83
2023/08/11 06:23:35;;;;;;;4.20;3.13;;;;;;;-145.69;65.79;51862.19;5114392;28;20292;-83
2023/08/11 06:26:02;;;;;;;4.25;2.92;;;;;;;-145.69;66.02;51878.03;5095769;28;20197;-83
2023/08/11 06:28:29;;;;;;;4.15;2.70;;;;;;;-145.69;66.51;51838.44;5113792;28;20201;-83
2023/08/11 06:30:55;;;;;;;6.53;3.30;;;;;;;-145.69;65.69;51826.56;5113795;28;20200;-83
2023/08/11 06:33:23;;;;;;;4.43;2.90;;;;;;;-145.69;65.18;51852.28;5113867;28;20208;-82
2023/08/11 06:35:50;;;;;;;4.45;2.75;;;;;;;-145.69;65.40;51818.63;5112754;28;20675;-82
2023/08/11 06:38:16;;;;;;;4.35;2.92;;;;;;;-145.69;65.23;51830.50;5113184;28;20194;-83
2023/08/11 06:40:44;;;;;;;3.17;2.75;;;;;;;-145.69;64.76;51812.69;5113825;28;20233;-82
2023/08/11 06:43:10;;;;;;;4.63;2.92;;;;;;;-145.69;64.44;51854.28;5113739;28;20202;-83
2023/08/11 06:45:37;;;;;;;5.38;2.95;;;;;;;-145.69;63.85;51794.88;5095601;28;20209;-83
2023/08/11 06:48:04;;;;;;;4.70;3.00;;;;;;;-145.69;63.36;51820.59;5113353;28;20204;-82
2023/08/11 06:50:32;;;;;;;3.53;2.33;;;;;;;-145.69;63.36;51806.75;5113456;28;20213;-82
2023/08/11 06:52:58;;;;;;;5.90;2.78;;;;;;;-145.69;63.31;51779.03;5113601;28;20203;-83
2023/08/11 06:55:25;;;;;;;4.82;2.58;;;;;;;-145.69;63.41;51786.94;5113131;28;20193;-82
2023/08/11 06:57:51;;;;;;;4.97;2.25;;;;;;;-145.69;63.16;51824.56;5113251;28;20338;-82
2023/08/11 07:00:18;;;;;;;3.80;2.50;;;;;;;-145.69;62.92;51796.84;5113340;28;20221;-83
2023/08/11 07:02:44;;;;;;;3.55;2.58;;;;;;;-145.69;62.91;51794.88;5113239;28;20200;-82
2023/08/11 07:05:12;;;;;;;2.85;2.22;;;;;;;-145.69;62.03;51836.44;5113554;28;20204;-83
2023/08/11 07:07:40;;;;;;;3.88;2.40;;;;;;;-145.69;60.79;51786.94;5113518;28;20240;-84
2023/08/11 07:10:07;;;;;;;6.78;2.42;;;;;;;-145.69;58.93;51810.72;5113444;28;20208;-84
2023/08/11 07:12:34;;;;;;;3.50;2.25;;;;;;;-145.69;58.43;51806.75;5112721;28;20193;-83
2023/08/11 07:15:01;;;;;;;4.13;2.47;;;;;;;-145.69;57.13;51786.94;5111986;28;20217;-82
2023/08/11 07:17:27;;;;;;;3.88;2.30;;;;;;;-145.69;56.05;51790.91;5113284;28;20276;-83
2023/08/11 07:19:54;;;;;;;4.13;2.40;;;;;;;-145.69;55.09;51810.72;5113275;28;20221;-83
2023/08/11 07:22:20;;;;;;;3.60;2.55;;;;;;;-145.69;52.59;51786.94;5113313;28;20208;-83
2023/08/11 07:24:48;;;;;;;3.67;2.35;;;;;;;-145.69;50.72;51806.75;5113385;28;20572;-83
2023/08/11 07:27:14;;;;;;;4.70;2.40;;;;;;;-145.69;49.58;51786.94;5112930;28;20198;-83
2023/08/11 07:29:41;;;;;;;3.72;2.25;;;;;;;-145.69;49.20;51771.09;5114164;28;20212;-85
2023/08/11 07:32:08;;;;;;;4.28;2.13;;;;;;;-145.69;47.05;51783.00;5117643;28;20840;-84
2023/08/11 07:34:36;;;;;;;3.33;2.05;;;;;;;-145.69;47.27;51771.09;5117498;28;20197;-83
2023/08/11 07:37:04;;;;;;;3.75;2.28;;;;;;;-145.69;46.51;51761.22;5117428;28;20209;-83
2023/08/11 07:39:30;;;;;;;3.83;2.50;;;;;;;-145.69;46.20;51775.06;5099265;28;20231;-83
2023/08/11 07:42:02;;;;;;;2.97;2.25;;;;;;;-145.69;46.27;51731.50;5116727;28;20194;-82
2023/08/11 07:44:29;;;;;;;5.07;2.10;;;;;;;-145.69;46.14;51771.09;5115218;28;20197;-83
2023/08/11 07:46:56;;;;;;;2.63;1.80;;;;;;;-145.69;46.24;51771.09;5117038;28;20201;-83
2023/08/11 07:49:22;;;;;;;3.47;2.00;;;;;;;-145.69;45.17;51759.22;5116896;28;20198;-82
2023/08/11 07:51:49;;;;;;;3.15;2.15;;;;;;;-145.69;45.42;51735.47;5117774;27;20215;-83
2023/08/11 07:54:17;;;;;;;3.13;2.17;;;;;;;-145.69;45.16;51775.06;5116686;28;20209;-83
2023/08/11 07:56:44;;;;;;;3.20;2.28;;;;;;;-145.69;45.65;51743.38;5117101;28;20197;-82
2023/08/11 07:59:12;;;;;;;3.50;2.17;;;;;;;-145.69;45.80;51723.59;5116984;28;20197;-83
2023/08/11 08:01:38;;;;;;;4.07;2.30;;;;;;;-145.69;46.89;51735.47;5117026;28;20201;-83
2023/08/11 08:04:05;;;;;;;3.35;2.10;;;;;;;-145.69;47.17;51743.38;5116953;28;20197;-83
2023/08/11 08:06:32;;;;;;;3.35;2.30;;;;;;;-145.69;46.61;51733.50;5116725;28;20206;-84
2023/08/11 08:08:58;;;;;;;3.38;2.25;;;;;;;-145.69;47.04;51735.47;5116505;28;20205;-83
2023/08/11 08:11:26;;;;;;;4.68;2.13;;;;;;;-145.69;48.01;51739.44;5116670;28;20200;-83
2023/08/11 08:13:52;;;;;;;8.05;2.63;;;;;;;-145.69;47.30;51751.31;5116347;28;20225;-84
2023/08/11 08:16:22;;;;;;;7.07;2.65;;;;;;;-145.69;48.79;51727.53;5095997;28;20194;-83
2023/08/11 08:18:49;;;;;;;4.63;2.17;;;;;;;-145.69;48.13;51763.19;5099130;28;20197;-83
2023/08/11 08:21:16;;;;;;;4.28;2.33;;;;;;;-145.69;48.72;51737.44;5116449;28;20251;-83
2023/08/11 08:23:42;;;;;;;2.83;2.10;;;;;;;-145.69;48.13;51723.59;5116231;28;20201;-82
2023/08/11 08:26:09;;;;;;;2.83;2.00;;;;;;;-145.69;44.83;51747.34;5116328;28;20560;-83
2023/08/11 08:28:36;;;;;;;3.00;2.17;;;;;;;-145.69;44.92;51737.44;5115943;28;20279;-84
2023/08/11 08:31:03;;;;;;;7.97;2.35;;;;;;;-145.69;43.57;51763.19;5114792;28;20529;-86
2023/08/11 08:33:31;;;;;;;3.45;2.15;;;;;;;-145.69;41.80;51731.50;5116298;28;20224;-84
2023/08/11 08:35:57;;;;;;;3.88;1.80;;;;;;;-145.69;42.12;51703.78;5115929;28;20189;-84
2023/08/11 08:38:24;;;;;;;4.18;2.13;;;;;;;-145.69;41.98;51727.53;5116248;28;20671;-83
2023/08/11 08:40:50;;;;;;;4.47;2.17;;;;;;;-145.69;42.13;51735.47;5115265;28;20707;-83
2023/08/11 08:43:17;;;;;;;3.15;1.67;;;;;;;-145.69;42.44;51703.78;5115726;28;20293;-84
2023/08/11 08:45:44;;;;;;;5.38;2.03;;;;;;;-145.69;43.36;51713.69;5114124;28;20687;-84
2023/08/11 08:48:17;;;;;;;3.80;1.85;;;;;;;-145.69;42.05;51717.66;5115719;28;20234;-83
2023/08/11 08:50:45;;;;;;;3.25;1.50;;;;;;;-145.69;40.60;51727.53;5115368;28;20198;-83
2023/08/11 08:53:12;;;;;;;2.53;1.80;;;;;;;-145.69;40.73;51745.38;5115533;28;20198;-83
2023/08/11 08:55:38;;;;;;;2.88;2.08;;;;;;;-145.69;41.90;51727.53;5115938;28;20289;-82
2023/08/11 08:58:07;;;;;;;3.15;1.90;;;;;;;-145.69;41.08;51725.56;5115621;28;20197;-83
2023/08/11 09:00:34;;;;;;;2.88;1.73;;;;;;;-145.69;40.96;51711.72;5115795;28;20240;-84
2023/08/11 09:03:03;;;;;;;3.47;2.00;;;;;;;-145.69;40.39;51715.66;5115224;28;20198;-83
2023/08/11 09:05:31;;;;;;;3.20;1.75;;;;;;;-145.69;38.66;51699.81;5115063;28;20196;-85
2023/08/11 09:07:59;;;;;;;2.85;1.50;;;;;;;-145.69;38.55;51707.75;5115627;28;20262;-84
2023/08/11 09:10:26;;;;;;;2.60;1.58;;;;;;;-145.69;39.13;51713.69;5115367;28;20556;-83
2023/08/11 09:12:52;;;;;;;2.47;1.80;;;;;;;-145.69;39.23;51699.81;5114853;28;20652;-83
2023/08/11 09:15:19;;;;;;;2.28;1.67;;;;;;;-145.69;39.58;51723.59;5115157;28;20205;-83
2023/08/11 09:17:48;;;;;;;3.65;1.90;;;;;;;-145.69;38.18;51707.75;5115108;28;20193;-85
2023/08/11 09:20:19;;;;;;;2.88;1.63;;;;;;;-145.69;38.24;51731.50;5115264;28;20213;-85
2023/08/11 09:22:46;;;;;;;2.90;1.92;;;;;;;-145.69;38.45;51695.88;5097145;28;20226;-80
2023/08/11 09:25:14;;;;;;;2.00;1.50;;;;;;;-145.69;38.14;51682.00;5114788;28;20190;-80
2023/08/11 09:27:41;;;;;;;3.63;1.83;;;;;;;-145.69;38.91;51711.72;5115257;28;20227;-83
2023/08/11 09:30:10;;;;;;;3.25;1.73;;;;;;;-145.69;38.93;51691.91;5115076;28;20769;-81
2023/08/11 09:32:37;;;;;;;3.60;1.95;;;;;;;-145.69;38.66;51715.66;5115067;28;20200;-82
2023/08/11 09:35:09;;;;;;;2.75;1.60;;;;;;;-145.69;37.62;51723.59;5114823;28;20193;-83
2023/08/11 09:37:36;;;;;;;2.42;1.52;;;;;;;-145.69;37.98;51691.91;5114723;28;20679;-83
2023/08/11 09:40:04;;;;;;;3.53;1.42;;;;;;;-145.69;37.52;51695.88;5114764;28;20227;-83
2023/08/11 09:42:32;;;;;;;2.97;1.60;;;;;;;-145.69;38.01;51707.75;5114918;28;20246;-85
2023/08/11 09:44:59;;;;;;;2.33;1.58;;;;;;;-145.69;37.33;51682.00;5114189;28;20197;-85
2023/08/11 09:47:28;;;;;;;2.88;1.70;;;;;;;-145.69;38.01;51715.66;5096801;28;20678;-83
2023/08/11 09:49:54;;;;;;;3.15;1.70;;;;;;;-145.69;37.64;51699.81;5113892;27;20213;-83
2023/08/11 09:52:21;;;;;;;1.92;1.60;;;;;;;-145.69;37.80;51687.94;5114830;28;20204;-82
2023/08/11 09:54:50;;;;;;;4.57;1.60;;;;;;;-145.69;37.88;51687.94;5112991;28;20224;-81
2023/08/11 09:57:18;;;;;;;2.60;1.80;;;;;;;-145.69;37.52;51701.81;5114501;28;20221;-83
2023/08/11 09:59:48;;;;;;;2.55;1.70;;;;;;;-145.69;38.27;51697.84;5114592;28;20205;-83
2023/08/11 10:02:21;;;;;;;2.85;1.50;;;;;;;-145.69;38.32;51683.97;5114197;28;20190;-85
2023/08/11 10:04:56;;;;;;;2.10;1.42;;;;;;;-145.69;37.80;51652.31;5114170;28;20198;-85
2023/08/11 10:07:30;;;;;;;3.53;1.48;;;;;;;-145.69;38.77;51689.94;5114277;28;20561;-85
2023/08/11 10:10:00;;;;;;;4.63;1.67;;;;;;;-145.69;38.49;51687.94;5114416;28;20205;-84
2023/08/11 10:12:28;;;;;;;2.90;1.58;;;;;;;-145.69;38.52;51672.09;5113817;28;20231;-83
2023/08/11 10:14:56;;;;;;;2.40;1.70;;;;;;;-145.69;39.46;51683.97;5114054;28;20229;-84
2023/08/11 10:17:24;;;;;;;5.43;1.67;;;;;;;-145.69;39.39;51674.09;5113032;28;20196;-84
2023/08/11 10:19:51;;;;;;;2.10;1.60;;;;;;;-145.69;38.50;51683.97;5113352;28;20200;-84
2023/08/11 10:22:18;;;;;;;2.00;1.40;;;;;;;-145.69;37.81;51689.94;5114040;28;20197;-84
2023/08/11 10:24:46;;;;;;;4.68;1.42;;;;;;;-145.69;39.14;51685.97;5114151;28;20205;-85
2023/08/11 10:27:14;;;;;;;1.98;1.60;;;;;;;-145.69;38.14;51703.78;5113943;28;20549;-84
2023/08/11 10:29:47;;;;;;;3.05;1.42;;;;;;;-145.69;37.34;51652.31;5114026;28;20205;-81
2023/08/11 10:32:16;;;;;;;3.50;1.58;;;;;;;-145.69;37.24;51674.09;5114104;28;20579;-83
2023/08/11 10:34:42;;;;;;;3.30;1.45;;;;;;;-145.69;37.01;51683.97;5113596;28;20189;-84
2023/08/11 10:37:09;;;;;;;5.32;1.77;;;;;;;-145.69;36.89;51666.16;5113926;28;20198;-82
2023/08/11 10:39:38;;;;;;;2.25;1.65;;;;;;;-145.69;37.12;51670.13;5113649;28;20201;-83
2023/08/11 10:42:05;;;;;;;6.75;1.70;;;;;;;-145.69;37.57;51670.13;5112428;28;20240;-80
2023/08/11 10:44:34;;;;;;;3.35;2.03;;;;;;;-145.69;36.39;51656.25;5113680;28;20204;-84
2023/08/11 10:47:03;;;;;;;1.98;1.42;;;;;;;-145.69;37.09;51695.88;5113928;28;20223;-85
2023/08/11 10:49:36;;;;;;;3.20;1.45;;;;;;;-145.69;37.01;51666.16;5113291;28;20571;-83
2023/08/11 10:52:04;;;;;;;1.83;1.30;;;;;;;-145.69;36.85;51678.03;5112946;28;20229;-83
2023/08/11 10:54:31;;;;;;;4.45;1.63;;;;;;;-145.69;37.57;51711.72;5113495;28;20228;-82
2023/08/11 10:57:01;;;;;;;2.40;1.88;;;;;;;-145.69;37.20;51697.84;5113613;28;20641;-82
2023/08/11 10:59:29;;;;;;;2.15;1.38;;;;;;;-145.69;37.70;51705.75;5113641;28;20208;-81
2023/08/11 11:01:57;;;;;;;3.08;1.70;;;;;;;-145.69;37.13;51660.22;5113109;28;20221;-81
2023/08/11 11:04:27;;;;;;;2.70;1.60;;;;;;;-145.69;36.94;51652.31;5112973;28;20236;-79
2023/08/11 11:06:54;;;;;;;3.75;1.52;;;;;;;-145.69;36.94;51656.25;5113335;28;20200;-83
2023/08/11 11:09:21;;;;;;;2.80;1.40;;;;;;;-145.69;37.48;51668.16;5113379;28;20205;-83
2023/08/11 11:11:50;;;;;;;2.47;1.63;;;;;;;-145.69;37.93;51693.88;5113265;28;20288;-83
2023/08/11 11:14:17;;;;;;;2.17;1.65;;;;;;;-145.69;37.77;51695.88;5112770;28;20294;-81
2023/08/11 11:16:44;;;;;;;2.65;1.60;;;;;;;-145.69;37.13;51668.16;5112820;28;20201;-83